sensor_id;sensor_type;location;lat;lon;timestamp;P1;durP1;ratioP1;P2;durP2;ratioP2
15946;SDS011;8072;52.554;7.966;2022-12-07T00:03:34;14.00;;;7.40;;
15946;SDS011;8072;52.554;7.966;2022-12-07T00:06:01;12.73;;;7.93;;
15946;SDS011;8072;52.554;7.966;2022-12-07T00:08:29;13.67;;;7.50;;
15946;SDS011;8072;52.554;7.966;2022-12-07T00:11:00;15.23;;;7.80;;
15946;SDS011;8072;52.554;7.966;2022-12-07T00:13:39;11.60;;;6.80;;
15946;SDS011;8072;52.554;7.966;2022-12-07T00:16:07;10.17;;;6.97;;
15946;SDS011;8072;52.554;7.966;2022-12-07T00:18:35;11.77;;;7.10;;
15946;SDS011;8072;52.554;7.966;2022-12-07T00:21:05;9.37;;;6.33;;
15946;SDS011;8072;52.554;7.966;2022-12-07T00:23:35;14.53;;;7.13;;
15946;SDS011;8072;52.554;7.966;2022-12-07T00:26:08;12.43;;;7.10;;
15946;SDS011;8072;52.554;7.966;2022-12-07T00:28:38;10.63;;;6.70;;
15946;SDS011;8072;52.554;7.966;2022-12-07T00:31:06;12.80;;;7.23;;
15946;SDS011;8072;52.554;7.966;2022-12-07T00:33:34;10.10;;;6.70;;
15946;SDS011;8072;52.554;7.966;2022-12-07T00:36:00;12.70;;;5.87;;
15946;SDS011;8072;52.554;7.966;2022-12-07T00:38:29;10.87;;;6.50;;
15946;SDS011;8072;52.554;7.966;2022-12-07T00:40:56;9.77;;;6.23;;
15946;SDS011;8072;52.554;7.966;2022-12-07T00:43:23;9.67;;;6.43;;
15946;SDS011;8072;52.554;7.966;2022-12-07T00:45:49;10.17;;;6.07;;
15946;SDS011;8072;52.554;7.966;2022-12-07T00:48:14;9.27;;;5.87;;
15946;SDS011;8072;52.554;7.966;2022-12-07T00:50:40;11.33;;;5.90;;
15946;SDS011;8072;52.554;7.966;2022-12-07T00:53:06;10.00;;;6.00;;
15946;SDS011;8072;52.554;7.966;2022-12-07T00:55:35;10.77;;;6.70;;
15946;SDS011;8072;52.554;7.966;2022-12-07T00:58:01;8.73;;;5.47;;
15946;SDS011;8072;52.554;7.966;2022-12-07T01:00:27;10.17;;;5.70;;
15946;SDS011;8072;52.554;7.966;2022-12-07T01:02:53;9.57;;;5.87;;
15946;SDS011;8072;52.554;7.966;2022-12-07T01:05:19;10.47;;;5.60;;
15946;SDS011;8072;52.554;7.966;2022-12-07T01:07:45;10.67;;;6.47;;
15946;SDS011;8072;52.554;7.966;2022-12-07T01:10:12;10.53;;;5.80;;
15946;SDS011;8072;52.554;7.966;2022-12-07T01:12:38;10.03;;;5.90;;
15946;SDS011;8072;52.554;7.966;2022-12-07T01:15:04;11.30;;;6.30;;
15946;SDS011;8072;52.554;7.966;2022-12-07T01:17:31;8.53;;;5.30;;
15946;SDS011;8072;52.554;7.966;2022-12-07T01:19:57;12.80;;;6.43;;
15946;SDS011;8072;52.554;7.966;2022-12-07T01:22:22;10.00;;;6.20;;
15946;SDS011;8072;52.554;7.966;2022-12-07T01:24:48;10.27;;;6.27;;
15946;SDS011;8072;52.554;7.966;2022-12-07T01:27:14;11.87;;;6.30;;
15946;SDS011;8072;52.554;7.966;2022-12-07T01:29:40;9.43;;;5.50;;
15946;SDS011;8072;52.554;7.966;2022-12-07T01:32:06;9.33;;;5.93;;
15946;SDS011;8072;52.554;7.966;2022-12-07T01:34:32;10.73;;;5.90;;
15946;SDS011;8072;52.554;7.966;2022-12-07T01:36:57;11.33;;;6.13;;
15946;SDS011;8072;52.554;7.966;2022-12-07T01:39:23;11.37;;;6.43;;
15946;SDS011;8072;52.554;7.966;2022-12-07T01:41:49;8.23;;;5.67;;
15946;SDS011;8072;52.554;7.966;2022-12-07T01:46:47;10.57;;;6.00;;
15946;SDS011;8072;52.554;7.966;2022-12-07T01:49:33;11.77;;;5.53;;
15946;SDS011;8072;52.554;7.966;2022-12-07T01:52:09;10.87;;;6.13;;
15946;SDS011;8072;52.554;7.966;2022-12-07T01:54:41;11.73;;;5.60;;
15946;SDS011;8072;52.554;7.966;2022-12-07T01:57:09;8.80;;;6.17;;
15946;SDS011;8072;52.554;7.966;2022-12-07T01:59:36;9.67;;;5.50;;
15946;SDS011;8072;52.554;7.966;2022-12-07T02:02:04;12.03;;;6.03;;
15946;SDS011;8072;52.554;7.966;2022-12-07T02:04:35;16.10;;;6.03;;
15946;SDS011;8072;52.554;7.966;2022-12-07T02:07:01;10.10;;;5.57;;
15946;SDS011;8072;52.554;7.966;2022-12-07T02:09:28;12.53;;;5.77;;
15946;SDS011;8072;52.554;7.966;2022-12-07T02:11:54;10.47;;;5.70;;
15946;SDS011;8072;52.554;7.966;2022-12-07T02:14:20;7.87;;;4.47;;
15946;SDS011;8072;52.554;7.966;2022-12-07T02:16:48;9.40;;;4.87;;
15946;SDS011;8072;52.554;7.966;2022-12-07T02:24:57;8.27;;;4.20;;
15946;SDS011;8072;52.554;7.966;2022-12-07T02:30:33;7.20;;;3.20;;
15946;SDS011;8072;52.554;7.966;2022-12-07T02:33:16;4.87;;;3.20;;
15946;SDS011;8072;52.554;7.966;2022-12-07T02:36:00;8.00;;;3.13;;
15946;SDS011;8072;52.554;7.966;2022-12-07T02:38:43;6.93;;;3.10;;
15946;SDS011;8072;52.554;7.966;2022-12-07T02:41:22;6.63;;;3.47;;
15946;SDS011;8072;52.554;7.966;2022-12-07T02:43:56;10.10;;;3.30;;
15946;SDS011;8072;52.554;7.966;2022-12-07T02:46:27;6.27;;;2.60;;
15946;SDS011;8072;52.554;7.966;2022-12-07T02:48:56;5.13;;;2.50;;
15946;SDS011;8072;52.554;7.966;2022-12-07T02:51:24;6.17;;;2.70;;
15946;SDS011;8072;52.554;7.966;2022-12-07T02:53:51;5.77;;;2.50;;
15946;SDS011;8072;52.554;7.966;2022-12-07T03:04:33;4.87;;;2.50;;
15946;SDS011;8072;52.554;7.966;2022-12-07T03:07:32;5.70;;;2.20;;
15946;SDS011;8072;52.554;7.966;2022-12-07T03:18:20;7.07;;;2.53;;
15946;SDS011;8072;52.554;7.966;2022-12-07T03:20:48;4.53;;;2.07;;
15946;SDS011;8072;52.554;7.966;2022-12-07T03:23:19;6.67;;;1.77;;
15946;SDS011;8072;52.554;7.966;2022-12-07T03:25:49;4.90;;;1.93;;
15946;SDS011;8072;52.554;7.966;2022-12-07T03:28:19;4.97;;;1.70;;
15946;SDS011;8072;52.554;7.966;2022-12-07T03:30:53;2.97;;;1.60;;
15946;SDS011;8072;52.554;7.966;2022-12-07T03:33:32;5.10;;;1.93;;
15946;SDS011;8072;52.554;7.966;2022-12-07T03:38:42;3.37;;;1.47;;
15946;SDS011;8072;52.554;7.966;2022-12-07T03:43:51;3.43;;;1.67;;
15946;SDS011;8072;52.554;7.966;2022-12-07T03:46:20;5.40;;;1.83;;
15946;SDS011;8072;52.554;7.966;2022-12-07T03:49:16;4.73;;;1.73;;
15946;SDS011;8072;52.554;7.966;2022-12-07T03:56:59;4.77;;;1.80;;
15946;SDS011;8072;52.554;7.966;2022-12-07T03:59:28;4.47;;;1.57;;
15946;SDS011;8072;52.554;7.966;2022-12-07T04:01:56;3.10;;;1.73;;
15946;SDS011;8072;52.554;7.966;2022-12-07T04:04:27;5.70;;;1.60;;
15946;SDS011;8072;52.554;7.966;2022-12-07T04:06:54;5.17;;;1.60;;
15946;SDS011;8072;52.554;7.966;2022-12-07T04:09:20;7.53;;;1.70;;
15946;SDS011;8072;52.554;7.966;2022-12-07T04:11:46;4.17;;;1.40;;
15946;SDS011;8072;52.554;7.966;2022-12-07T04:14:12;4.37;;;1.60;;
15946;SDS011;8072;52.554;7.966;2022-12-07T04:16:47;3.30;;;1.60;;
15946;SDS011;8072;52.554;7.966;2022-12-07T04:19:22;8.23;;;2.10;;
15946;SDS011;8072;52.554;7.966;2022-12-07T04:21:52;6.03;;;1.80;;
15946;SDS011;8072;52.554;7.966;2022-12-07T04:24:18;3.80;;;1.37;;
15946;SDS011;8072;52.554;7.966;2022-12-07T04:26:44;5.13;;;1.60;;
15946;SDS011;8072;52.554;7.966;2022-12-07T04:29:10;6.57;;;1.93;;
15946;SDS011;8072;52.554;7.966;2022-12-07T04:31:36;4.97;;;1.63;;
15946;SDS011;8072;52.554;7.966;2022-12-07T04:34:03;4.87;;;1.70;;
15946;SDS011;8072;52.554;7.966;2022-12-07T04:36:33;3.63;;;1.60;;
15946;SDS011;8072;52.554;7.966;2022-12-07T04:38:59;6.00;;;1.53;;
15946;SDS011;8072;52.554;7.966;2022-12-07T04:41:26;3.40;;;1.33;;
15946;SDS011;8072;52.554;7.966;2022-12-07T04:43:55;4.40;;;1.70;;
15946;SDS011;8072;52.554;7.966;2022-12-07T04:46:26;6.07;;;1.30;;
15946;SDS011;8072;52.554;7.966;2022-12-07T04:48:54;5.70;;;1.47;;
15946;SDS011;8072;52.554;7.966;2022-12-07T04:51:21;4.77;;;1.43;;
15946;SDS011;8072;52.554;7.966;2022-12-07T04:53:48;8.07;;;1.60;;
15946;SDS011;8072;52.554;7.966;2022-12-07T04:56:14;4.73;;;1.53;;
15946;SDS011;8072;52.554;7.966;2022-12-07T04:58:42;3.40;;;1.33;;
15946;SDS011;8072;52.554;7.966;2022-12-07T05:01:09;6.10;;;1.80;;
15946;SDS011;8072;52.554;7.966;2022-12-07T05:03:35;2.97;;;1.40;;
15946;SDS011;8072;52.554;7.966;2022-12-07T05:06:02;3.77;;;1.70;;
15946;SDS011;8072;52.554;7.966;2022-12-07T05:08:28;6.40;;;1.60;;
15946;SDS011;8072;52.554;7.966;2022-12-07T05:10:54;7.17;;;1.93;;
15946;SDS011;8072;52.554;7.966;2022-12-07T05:13:20;4.17;;;1.73;;
15946;SDS011;8072;52.554;7.966;2022-12-07T05:15:48;5.53;;;1.80;;
15946;SDS011;8072;52.554;7.966;2022-12-07T05:18:14;3.80;;;1.40;;
15946;SDS011;8072;52.554;7.966;2022-12-07T05:20:41;4.00;;;1.70;;
15946;SDS011;8072;52.554;7.966;2022-12-07T05:23:07;5.00;;;1.50;;
15946;SDS011;8072;52.554;7.966;2022-12-07T05:25:38;4.43;;;1.83;;
15946;SDS011;8072;52.554;7.966;2022-12-07T05:28:04;4.80;;;1.57;;
15946;SDS011;8072;52.554;7.966;2022-12-07T05:30:31;2.80;;;1.50;;
15946;SDS011;8072;52.554;7.966;2022-12-07T05:32:57;5.23;;;1.60;;
15946;SDS011;8072;52.554;7.966;2022-12-07T05:35:23;3.53;;;1.50;;
15946;SDS011;8072;52.554;7.966;2022-12-07T05:37:49;3.97;;;1.60;;
15946;SDS011;8072;52.554;7.966;2022-12-07T05:40:15;5.20;;;1.60;;
15946;SDS011;8072;52.554;7.966;2022-12-07T05:42:42;7.83;;;1.93;;
15946;SDS011;8072;52.554;7.966;2022-12-07T05:45:08;5.70;;;1.70;;
15946;SDS011;8072;52.554;7.966;2022-12-07T05:47:35;3.77;;;1.50;;
15946;SDS011;8072;52.554;7.966;2022-12-07T05:50:01;6.10;;;1.80;;
15946;SDS011;8072;52.554;7.966;2022-12-07T05:52:27;9.00;;;1.77;;
15946;SDS011;8072;52.554;7.966;2022-12-07T05:54:52;4.83;;;1.80;;
15946;SDS011;8072;52.554;7.966;2022-12-07T05:57:18;3.27;;;1.77;;
15946;SDS011;8072;52.554;7.966;2022-12-07T05:59:44;4.23;;;1.60;;
15946;SDS011;8072;52.554;7.966;2022-12-07T06:02:11;7.60;;;2.10;;
15946;SDS011;8072;52.554;7.966;2022-12-07T06:04:39;5.97;;;2.10;;
15946;SDS011;8072;52.554;7.966;2022-12-07T06:07:10;4.03;;;1.90;;
15946;SDS011;8072;52.554;7.966;2022-12-07T06:09:38;7.80;;;1.50;;
15946;SDS011;8072;52.554;7.966;2022-12-07T06:12:04;5.53;;;1.97;;
15946;SDS011;8072;52.554;7.966;2022-12-07T06:14:49;4.80;;;1.90;;
15946;SDS011;8072;52.554;7.966;2022-12-07T06:17:14;8.57;;;1.87;;
15946;SDS011;8072;52.554;7.966;2022-12-07T06:19:41;4.07;;;1.43;;
15946;SDS011;8072;52.554;7.966;2022-12-07T06:22:09;5.13;;;1.80;;
15946;SDS011;8072;52.554;7.966;2022-12-07T06:24:36;4.80;;;1.70;;
15946;SDS011;8072;52.554;7.966;2022-12-07T06:27:03;5.43;;;1.73;;
15946;SDS011;8072;52.554;7.966;2022-12-07T06:29:28;1.93;;;1.50;;
15946;SDS011;8072;52.554;7.966;2022-12-07T06:31:55;6.90;;;2.23;;
15946;SDS011;8072;52.554;7.966;2022-12-07T06:34:21;3.37;;;1.73;;
15946;SDS011;8072;52.554;7.966;2022-12-07T06:36:48;5.47;;;1.77;;
15946;SDS011;8072;52.554;7.966;2022-12-07T06:39:24;4.03;;;1.37;;
15946;SDS011;8072;52.554;7.966;2022-12-07T06:41:51;4.57;;;1.57;;
15946;SDS011;8072;52.554;7.966;2022-12-07T06:44:17;4.60;;;1.73;;
15946;SDS011;8072;52.554;7.966;2022-12-07T06:46:44;4.93;;;1.97;;
15946;SDS011;8072;52.554;7.966;2022-12-07T06:49:09;4.23;;;1.50;;
15946;SDS011;8072;52.554;7.966;2022-12-07T06:51:35;4.30;;;1.57;;
15946;SDS011;8072;52.554;7.966;2022-12-07T06:54:05;3.67;;;1.43;;
15946;SDS011;8072;52.554;7.966;2022-12-07T06:56:35;3.07;;;1.53;;
15946;SDS011;8072;52.554;7.966;2022-12-07T06:59:01;5.60;;;1.50;;
15946;SDS011;8072;52.554;7.966;2022-12-07T07:01:27;6.47;;;1.80;;
15946;SDS011;8072;52.554;7.966;2022-12-07T07:03:53;4.90;;;1.67;;
15946;SDS011;8072;52.554;7.966;2022-12-07T07:06:20;4.33;;;1.77;;
15946;SDS011;8072;52.554;7.966;2022-12-07T07:08:46;5.00;;;1.83;;
15946;SDS011;8072;52.554;7.966;2022-12-07T07:11:12;4.03;;;1.40;;
15946;SDS011;8072;52.554;7.966;2022-12-07T07:13:38;4.20;;;1.70;;
15946;SDS011;8072;52.554;7.966;2022-12-07T07:16:04;4.10;;;1.60;;
15946;SDS011;8072;52.554;7.966;2022-12-07T07:18:30;2.50;;;1.60;;
15946;SDS011;8072;52.554;7.966;2022-12-07T07:20:56;6.80;;;1.90;;
15946;SDS011;8072;52.554;7.966;2022-12-07T07:23:22;6.80;;;1.90;;
15946;SDS011;8072;52.554;7.966;2022-12-07T07:25:48;7.67;;;1.83;;
15946;SDS011;8072;52.554;7.966;2022-12-07T07:28:16;4.37;;;1.77;;
15946;SDS011;8072;52.554;7.966;2022-12-07T07:30:41;3.90;;;1.70;;
15946;SDS011;8072;52.554;7.966;2022-12-07T07:33:07;7.33;;;1.80;;
15946;SDS011;8072;52.554;7.966;2022-12-07T07:35:35;3.77;;;1.53;;
15946;SDS011;8072;52.554;7.966;2022-12-07T07:38:01;4.60;;;1.90;;
15946;SDS011;8072;52.554;7.966;2022-12-07T07:40:28;4.00;;;2.00;;
15946;SDS011;8072;52.554;7.966;2022-12-07T07:42:55;8.93;;;1.80;;
15946;SDS011;8072;52.554;7.966;2022-12-07T07:45:22;3.20;;;2.10;;
15946;SDS011;8072;52.554;7.966;2022-12-07T07:47:49;6.03;;;1.63;;
15946;SDS011;8072;52.554;7.966;2022-12-07T07:50:16;3.70;;;1.53;;
15946;SDS011;8072;52.554;7.966;2022-12-07T07:52:43;2.77;;;1.60;;
15946;SDS011;8072;52.554;7.966;2022-12-07T07:55:09;6.70;;;1.90;;
15946;SDS011;8072;52.554;7.966;2022-12-07T07:57:35;4.47;;;1.87;;
15946;SDS011;8072;52.554;7.966;2022-12-07T08:00:05;3.00;;;1.90;;
15946;SDS011;8072;52.554;7.966;2022-12-07T08:02:33;7.27;;;1.90;;
15946;SDS011;8072;52.554;7.966;2022-12-07T08:04:59;3.33;;;1.73;;
15946;SDS011;8072;52.554;7.966;2022-12-07T08:07:25;11.93;;;2.07;;
15946;SDS011;8072;52.554;7.966;2022-12-07T08:09:52;5.37;;;1.80;;
15946;SDS011;8072;52.554;7.966;2022-12-07T08:12:18;6.47;;;2.00;;
15946;SDS011;8072;52.554;7.966;2022-12-07T08:14:44;5.13;;;1.80;;
15946;SDS011;8072;52.554;7.966;2022-12-07T08:17:10;6.53;;;1.60;;
15946;SDS011;8072;52.554;7.966;2022-12-07T08:19:36;2.50;;;1.50;;
15946;SDS011;8072;52.554;7.966;2022-12-07T08:22:02;3.80;;;1.40;;
15946;SDS011;8072;52.554;7.966;2022-12-07T08:24:27;2.13;;;1.43;;
15946;SDS011;8072;52.554;7.966;2022-12-07T08:26:53;5.87;;;1.80;;
15946;SDS011;8072;52.554;7.966;2022-12-07T08:29:19;8.30;;;1.90;;
15946;SDS011;8072;52.554;7.966;2022-12-07T08:31:46;5.37;;;1.80;;
15946;SDS011;8072;52.554;7.966;2022-12-07T08:34:12;6.73;;;1.83;;
15946;SDS011;8072;52.554;7.966;2022-12-07T08:36:38;3.43;;;1.70;;
15946;SDS011;8072;52.554;7.966;2022-12-07T08:39:04;9.13;;;2.17;;
15946;SDS011;8072;52.554;7.966;2022-12-07T08:41:31;2.77;;;1.90;;
15946;SDS011;8072;52.554;7.966;2022-12-07T08:43:57;6.13;;;1.80;;
15946;SDS011;8072;52.554;7.966;2022-12-07T08:49:03;9.47;;;2.07;;
15946;SDS011;8072;52.554;7.966;2022-12-07T08:51:43;7.90;;;1.60;;
15946;SDS011;8072;52.554;7.966;2022-12-07T08:54:10;8.57;;;1.90;;
15946;SDS011;8072;52.554;7.966;2022-12-07T08:56:39;7.37;;;1.70;;
15946;SDS011;8072;52.554;7.966;2022-12-07T08:59:06;6.17;;;1.90;;
15946;SDS011;8072;52.554;7.966;2022-12-07T09:01:32;7.03;;;1.97;;
15946;SDS011;8072;52.554;7.966;2022-12-07T09:03:58;4.50;;;1.90;;
15946;SDS011;8072;52.554;7.966;2022-12-07T09:06:24;5.07;;;2.00;;
15946;SDS011;8072;52.554;7.966;2022-12-07T09:08:51;6.23;;;1.80;;
15946;SDS011;8072;52.554;7.966;2022-12-07T09:11:20;4.73;;;2.00;;
15946;SDS011;8072;52.554;7.966;2022-12-07T09:13:46;7.10;;;1.90;;
15946;SDS011;8072;52.554;7.966;2022-12-07T09:16:12;4.67;;;1.67;;
15946;SDS011;8072;52.554;7.966;2022-12-07T09:18:38;3.77;;;1.70;;
15946;SDS011;8072;52.554;7.966;2022-12-07T09:21:04;6.83;;;1.90;;
15946;SDS011;8072;52.554;7.966;2022-12-07T09:23:30;6.23;;;2.17;;
15946;SDS011;8072;52.554;7.966;2022-12-07T09:25:59;7.20;;;2.17;;
15946;SDS011;8072;52.554;7.966;2022-12-07T09:28:25;3.03;;;1.70;;
15946;SDS011;8072;52.554;7.966;2022-12-07T09:30:51;11.80;;;2.20;;
15946;SDS011;8072;52.554;7.966;2022-12-07T09:33:17;3.70;;;1.80;;
15946;SDS011;8072;52.554;7.966;2022-12-07T09:35:50;7.73;;;1.90;;
15946;SDS011;8072;52.554;7.966;2022-12-07T09:38:17;8.70;;;2.30;;
15946;SDS011;8072;52.554;7.966;2022-12-07T09:40:44;6.13;;;2.07;;
15946;SDS011;8072;52.554;7.966;2022-12-07T09:43:19;6.30;;;1.70;;
15946;SDS011;8072;52.554;7.966;2022-12-07T09:45:49;11.97;;;1.70;;
15946;SDS011;8072;52.554;7.966;2022-12-07T09:50:47;5.60;;;1.80;;
15946;SDS011;8072;52.554;7.966;2022-12-07T09:53:15;7.87;;;1.70;;
15946;SDS011;8072;52.554;7.966;2022-12-07T09:56:14;4.43;;;2.00;;
15946;SDS011;8072;52.554;7.966;2022-12-07T09:58:42;8.57;;;2.17;;
15946;SDS011;8072;52.554;7.966;2022-12-07T10:03:36;3.43;;;1.63;;
15946;SDS011;8072;52.554;7.966;2022-12-07T10:06:04;5.67;;;1.77;;
15946;SDS011;8072;52.554;7.966;2022-12-07T10:08:32;6.33;;;1.63;;
15946;SDS011;8072;52.554;7.966;2022-12-07T10:11:02;8.53;;;1.60;;
15946;SDS011;8072;52.554;7.966;2022-12-07T10:16:56;9.47;;;1.63;;
15946;SDS011;8072;52.554;7.966;2022-12-07T10:19:25;3.20;;;1.50;;
15946;SDS011;8072;52.554;7.966;2022-12-07T10:22:00;3.37;;;1.70;;
15946;SDS011;8072;52.554;7.966;2022-12-07T10:24:40;4.63;;;1.30;;
15946;SDS011;8072;52.554;7.966;2022-12-07T10:29:51;7.47;;;1.50;;
15946;SDS011;8072;52.554;7.966;2022-12-07T10:34:43;3.03;;;1.30;;
15946;SDS011;8072;52.554;7.966;2022-12-07T10:47:44;3.53;;;1.30;;
15946;SDS011;8072;52.554;7.966;2022-12-07T11:15:26;6.37;;;1.53;;
15946;SDS011;8072;52.554;7.966;2022-12-07T11:21:23;4.20;;;1.50;;
15946;SDS011;8072;52.554;7.966;2022-12-07T11:24:06;4.30;;;1.67;;
15946;SDS011;8072;52.554;7.966;2022-12-07T11:35:04;7.13;;;1.80;;
15946;SDS011;8072;52.554;7.966;2022-12-07T11:38:06;3.30;;;1.60;;
15946;SDS011;8072;52.554;7.966;2022-12-07T11:40:39;4.43;;;1.50;;
15946;SDS011;8072;52.554;7.966;2022-12-07T11:46:11;3.03;;;1.67;;
15946;SDS011;8072;52.554;7.966;2022-12-07T11:48:41;4.40;;;1.60;;
15946;SDS011;8072;52.554;7.966;2022-12-07T11:51:11;4.60;;;1.57;;
15946;SDS011;8072;52.554;7.966;2022-12-07T11:53:38;6.03;;;1.60;;
15946;SDS011;8072;52.554;7.966;2022-12-07T11:56:21;3.43;;;1.27;;
15946;SDS011;8072;52.554;7.966;2022-12-07T11:59:04;4.33;;;1.60;;
15946;SDS011;8072;52.554;7.966;2022-12-07T12:07:21;7.03;;;2.73;;
15946;SDS011;8072;52.554;7.966;2022-12-07T12:09:59;10.50;;;2.37;;
15946;SDS011;8072;52.554;7.966;2022-12-07T12:18:09;6.93;;;1.63;;
15946;SDS011;8072;52.554;7.966;2022-12-07T12:20:57;6.63;;;1.83;;
15946;SDS011;8072;52.554;7.966;2022-12-07T12:26:26;5.30;;;1.47;;
15946;SDS011;8072;52.554;7.966;2022-12-07T12:28:56;5.10;;;1.37;;
15946;SDS011;8072;52.554;7.966;2022-12-07T12:31:46;3.57;;;1.40;;
15946;SDS011;8072;52.554;7.966;2022-12-07T12:34:31;7.77;;;1.97;;
15946;SDS011;8072;52.554;7.966;2022-12-07T12:37:02;8.47;;;2.40;;
15946;SDS011;8072;52.554;7.966;2022-12-07T12:42:57;3.07;;;1.67;;
15946;SDS011;8072;52.554;7.966;2022-12-07T12:50:26;6.27;;;1.50;;
15946;SDS011;8072;52.554;7.966;2022-12-07T12:55:43;3.97;;;1.60;;
15946;SDS011;8072;52.554;7.966;2022-12-07T13:00:43;3.57;;;1.73;;
15946;SDS011;8072;52.554;7.966;2022-12-07T13:03:27;3.63;;;1.20;;
15946;SDS011;8072;52.554;7.966;2022-12-07T13:08:42;4.33;;;2.53;;
15946;SDS011;8072;52.554;7.966;2022-12-07T13:17:00;6.00;;;1.40;;
15946;SDS011;8072;52.554;7.966;2022-12-07T13:20:00;8.60;;;1.60;;
15946;SDS011;8072;52.554;7.966;2022-12-07T13:25:08;3.87;;;1.70;;
15946;SDS011;8072;52.554;7.966;2022-12-07T13:27:38;4.97;;;1.40;;
15946;SDS011;8072;52.554;7.966;2022-12-07T13:30:19;6.50;;;1.40;;
15946;SDS011;8072;52.554;7.966;2022-12-07T13:32:56;6.83;;;1.50;;
15946;SDS011;8072;52.554;7.966;2022-12-07T13:35:34;5.77;;;1.70;;
15946;SDS011;8072;52.554;7.966;2022-12-07T13:38:04;6.27;;;1.27;;
15946;SDS011;8072;52.554;7.966;2022-12-07T13:40:39;5.63;;;1.37;;
15946;SDS011;8072;52.554;7.966;2022-12-07T13:43:12;7.33;;;1.60;;
15946;SDS011;8072;52.554;7.966;2022-12-07T13:45:41;4.90;;;1.40;;
15946;SDS011;8072;52.554;7.966;2022-12-07T13:48:14;6.93;;;1.47;;
15946;SDS011;8072;52.554;7.966;2022-12-07T13:51:27;4.37;;;1.50;;
15946;SDS011;8072;52.554;7.966;2022-12-07T13:54:01;7.00;;;1.40;;
15946;SDS011;8072;52.554;7.966;2022-12-07T13:56:34;2.97;;;1.27;;
15946;SDS011;8072;52.554;7.966;2022-12-07T13:59:01;8.07;;;1.33;;
15946;SDS011;8072;52.554;7.966;2022-12-07T14:01:30;3.63;;;1.17;;
15946;SDS011;8072;52.554;7.966;2022-12-07T14:04:15;3.63;;;1.30;;
15946;SDS011;8072;52.554;7.966;2022-12-07T14:06:52;5.73;;;1.40;;
15946;SDS011;8072;52.554;7.966;2022-12-07T14:09:19;3.37;;;1.20;;
15946;SDS011;8072;52.554;7.966;2022-12-07T14:11:48;5.27;;;1.23;;
15946;SDS011;8072;52.554;7.966;2022-12-07T14:14:22;6.57;;;1.60;;
15946;SDS011;8072;52.554;7.966;2022-12-07T14:16:56;3.53;;;1.47;;
15946;SDS011;8072;52.554;7.966;2022-12-07T14:22:53;4.07;;;1.60;;
15946;SDS011;8072;52.554;7.966;2022-12-07T14:27:38;5.47;;;1.43;;
15946;SDS011;8072;52.554;7.966;2022-12-07T14:30:15;5.07;;;1.30;;
15946;SDS011;8072;52.554;7.966;2022-12-07T14:32:43;4.17;;;2.07;;
15946;SDS011;8072;52.554;7.966;2022-12-07T14:35:14;4.17;;;1.47;;
15946;SDS011;8072;52.554;7.966;2022-12-07T14:37:41;4.20;;;1.20;;
15946;SDS011;8072;52.554;7.966;2022-12-07T14:40:12;3.63;;;1.10;;
15946;SDS011;8072;52.554;7.966;2022-12-07T14:42:39;4.77;;;1.50;;
15946;SDS011;8072;52.554;7.966;2022-12-07T14:45:10;5.20;;;1.30;;
15946;SDS011;8072;52.554;7.966;2022-12-07T14:47:43;3.87;;;1.57;;
15946;SDS011;8072;52.554;7.966;2022-12-07T14:50:13;4.80;;;1.50;;
15946;SDS011;8072;52.554;7.966;2022-12-07T14:52:41;4.33;;;1.47;;
15946;SDS011;8072;52.554;7.966;2022-12-07T14:55:16;3.00;;;1.17;;
15946;SDS011;8072;52.554;7.966;2022-12-07T14:57:47;3.73;;;1.30;;
15946;SDS011;8072;52.554;7.966;2022-12-07T15:00:13;4.37;;;1.50;;
15946;SDS011;8072;52.554;7.966;2022-12-07T15:02:40;7.10;;;1.70;;
15946;SDS011;8072;52.554;7.966;2022-12-07T15:05:06;3.83;;;1.43;;
15946;SDS011;8072;52.554;7.966;2022-12-07T15:07:32;5.87;;;2.03;;
15946;SDS011;8072;52.554;7.966;2022-12-07T15:09:58;9.33;;;1.83;;
15946;SDS011;8072;52.554;7.966;2022-12-07T15:12:24;5.43;;;1.37;;
15946;SDS011;8072;52.554;7.966;2022-12-07T15:14:50;4.10;;;1.40;;
15946;SDS011;8072;52.554;7.966;2022-12-07T15:17:16;3.10;;;1.23;;
15946;SDS011;8072;52.554;7.966;2022-12-07T15:19:41;4.67;;;1.37;;
15946;SDS011;8072;52.554;7.966;2022-12-07T15:22:08;6.17;;;1.63;;
15946;SDS011;8072;52.554;7.966;2022-12-07T15:24:36;2.13;;;1.20;;
15946;SDS011;8072;52.554;7.966;2022-12-07T15:27:02;3.60;;;1.57;;
15946;SDS011;8072;52.554;7.966;2022-12-07T15:29:28;3.00;;;1.47;;
15946;SDS011;8072;52.554;7.966;2022-12-07T15:31:54;4.70;;;1.53;;
15946;SDS011;8072;52.554;7.966;2022-12-07T15:34:20;6.23;;;1.50;;
15946;SDS011;8072;52.554;7.966;2022-12-07T15:36:46;9.87;;;2.40;;
15946;SDS011;8072;52.554;7.966;2022-12-07T15:39:12;3.97;;;1.70;;
15946;SDS011;8072;52.554;7.966;2022-12-07T15:41:38;4.63;;;1.77;;
15946;SDS011;8072;52.554;7.966;2022-12-07T15:44:04;3.70;;;1.97;;
15946;SDS011;8072;52.554;7.966;2022-12-07T15:47:05;7.60;;;2.50;;
15946;SDS011;8072;52.554;7.966;2022-12-07T15:49:30;7.13;;;2.60;;
15946;SDS011;8072;52.554;7.966;2022-12-07T15:51:56;8.47;;;2.20;;
15946;SDS011;8072;52.554;7.966;2022-12-07T15:54:23;6.47;;;2.67;;
15946;SDS011;8072;52.554;7.966;2022-12-07T15:56:51;5.67;;;2.27;;
15946;SDS011;8072;52.554;7.966;2022-12-07T15:59:18;4.23;;;2.30;;
15946;SDS011;8072;52.554;7.966;2022-12-07T16:01:43;9.10;;;2.53;;
15946;SDS011;8072;52.554;7.966;2022-12-07T16:04:09;5.97;;;2.20;;
15946;SDS011;8072;52.554;7.966;2022-12-07T16:06:35;10.43;;;2.30;;
15946;SDS011;8072;52.554;7.966;2022-12-07T16:09:02;8.20;;;2.30;;
15946;SDS011;8072;52.554;7.966;2022-12-07T16:11:28;9.43;;;2.37;;
15946;SDS011;8072;52.554;7.966;2022-12-07T16:13:54;10.67;;;2.20;;
15946;SDS011;8072;52.554;7.966;2022-12-07T16:16:20;6.27;;;2.00;;
15946;SDS011;8072;52.554;7.966;2022-12-07T16:18:47;9.67;;;2.20;;
15946;SDS011;8072;52.554;7.966;2022-12-07T16:21:14;5.53;;;2.50;;
15946;SDS011;8072;52.554;7.966;2022-12-07T16:23:40;8.83;;;2.27;;
15946;SDS011;8072;52.554;7.966;2022-12-07T16:26:07;4.87;;;2.50;;
15946;SDS011;8072;52.554;7.966;2022-12-07T16:28:36;4.47;;;2.17;;
15946;SDS011;8072;52.554;7.966;2022-12-07T16:31:06;12.53;;;4.97;;
15946;SDS011;8072;52.554;7.966;2022-12-07T16:33:35;6.90;;;2.57;;
15946;SDS011;8072;52.554;7.966;2022-12-07T16:36:03;4.53;;;2.37;;
15946;SDS011;8072;52.554;7.966;2022-12-07T16:38:30;6.20;;;2.40;;
15946;SDS011;8072;52.554;7.966;2022-12-07T16:40:56;6.30;;;1.87;;
15946;SDS011;8072;52.554;7.966;2022-12-07T16:43:21;4.03;;;2.10;;
15946;SDS011;8072;52.554;7.966;2022-12-07T16:45:48;4.80;;;2.20;;
15946;SDS011;8072;52.554;7.966;2022-12-07T16:48:15;9.00;;;2.73;;
15946;SDS011;8072;52.554;7.966;2022-12-07T16:50:41;3.47;;;2.10;;
15946;SDS011;8072;52.554;7.966;2022-12-07T16:53:08;4.97;;;2.20;;
15946;SDS011;8072;52.554;7.966;2022-12-07T16:55:38;5.20;;;2.07;;
15946;SDS011;8072;52.554;7.966;2022-12-07T16:58:05;4.20;;;2.43;;
15946;SDS011;8072;52.554;7.966;2022-12-07T17:00:31;4.50;;;2.30;;
15946;SDS011;8072;52.554;7.966;2022-12-07T17:02:57;8.57;;;2.30;;
15946;SDS011;8072;52.554;7.966;2022-12-07T17:05:24;5.23;;;1.90;;
15946;SDS011;8072;52.554;7.966;2022-12-07T17:07:51;4.47;;;2.03;;
15946;SDS011;8072;52.554;7.966;2022-12-07T17:10:17;3.13;;;1.83;;
15946;SDS011;8072;52.554;7.966;2022-12-07T17:12:43;4.27;;;2.23;;
15946;SDS011;8072;52.554;7.966;2022-12-07T17:15:09;4.27;;;2.20;;
15946;SDS011;8072;52.554;7.966;2022-12-07T17:17:52;4.33;;;2.43;;
15946;SDS011;8072;52.554;7.966;2022-12-07T17:20:24;5.13;;;2.10;;
15946;SDS011;8072;52.554;7.966;2022-12-07T17:22:51;3.63;;;2.30;;
15946;SDS011;8072;52.554;7.966;2022-12-07T17:25:17;5.17;;;2.70;;
15946;SDS011;8072;52.554;7.966;2022-12-07T17:27:44;6.93;;;2.23;;
15946;SDS011;8072;52.554;7.966;2022-12-07T17:30:12;3.83;;;2.50;;
15946;SDS011;8072;52.554;7.966;2022-12-07T17:32:38;3.73;;;2.30;;
15946;SDS011;8072;52.554;7.966;2022-12-07T17:35:04;3.00;;;2.47;;
15946;SDS011;8072;52.554;7.966;2022-12-07T17:37:31;6.30;;;2.20;;
15946;SDS011;8072;52.554;7.966;2022-12-07T17:39:58;8.57;;;2.63;;
15946;SDS011;8072;52.554;7.966;2022-12-07T17:42:25;6.20;;;2.50;;
15946;SDS011;8072;52.554;7.966;2022-12-07T17:45:01;6.90;;;2.83;;